createdAt,value
2023-03-05T00:00:46.674Z,4.74
2023-03-05T00:01:46.623Z,4.66
2023-03-05T00:02:46.629Z,4.74
2023-03-05T00:03:46.707Z,4.67
2023-03-05T00:04:46.602Z,4.71
2023-03-05T00:05:46.596Z,4.68
2023-03-05T00:06:46.594Z,4.66
2023-03-05T00:07:46.585Z,4.74
2023-03-05T00:08:46.577Z,4.87
2023-03-05T00:09:46.569Z,4.68
2023-03-05T00:10:46.569Z,4.84
2023-03-05T00:11:46.568Z,4.75
2023-03-05T00:12:46.567Z,4.74
2023-03-05T00:13:46.538Z,4.75
2023-03-05T00:14:46.537Z,4.82
2023-03-05T00:15:46.587Z,4.77
2023-03-05T00:16:46.519Z,4.82
2023-03-05T00:17:46.514Z,4.74
2023-03-05T00:18:46.524Z,4.78
2023-03-05T00:19:46.499Z,4.70
2023-03-05T00:20:46.500Z,4.75
2023-03-05T00:21:46.490Z,4.73
2023-03-05T00:22:46.484Z,4.67
2023-03-05T00:23:46.473Z,4.67
2023-03-05T00:24:46.733Z,4.66
2023-03-05T00:25:46.481Z,4.67
2023-03-05T00:26:46.476Z,4.60
2023-03-05T00:27:46.450Z,4.55
2023-03-05T00:28:46.460Z,4.53
2023-03-05T00:30:46.469Z,4.55
2023-03-05T00:31:46.443Z,4.59
2023-03-05T00:32:46.414Z,4.58
2023-03-05T00:33:46.439Z,4.58
2023-03-05T00:34:46.400Z,4.59
2023-03-05T00:35:46.412Z,4.56
2023-03-05T00:36:46.385Z,4.60
2023-03-05T00:37:46.381Z,4.58
2023-03-05T00:38:46.378Z,4.59
2023-03-05T00:39:46.378Z,4.59
2023-03-05T00:40:46.498Z,4.58
2023-03-05T00:41:46.356Z,4.59
2023-03-05T00:42:46.349Z,4.50
2023-03-05T00:43:46.353Z,4.48
2023-03-05T00:44:46.360Z,4.45
2023-03-05T00:45:46.345Z,4.52
2023-03-05T00:46:46.434Z,4.55
2023-03-05T00:47:46.322Z,4.53
2023-03-05T00:48:46.309Z,4.59
2023-03-05T00:49:46.304Z,4.53
2023-03-05T00:50:46.297Z,4.56
2023-03-05T00:51:46.291Z,4.55
2023-03-05T00:52:46.282Z,4.53
2023-03-05T00:53:46.279Z,4.53
2023-03-05T00:54:46.268Z,4.49
2023-03-05T00:55:46.275Z,4.52
2023-03-05T00:56:46.254Z,4.52
2023-03-05T00:57:46.260Z,4.42
2023-03-05T00:58:46.247Z,4.50
2023-03-05T00:59:46.240Z,4.49
2023-03-05T01:00:46.251Z,4.42
2023-03-05T01:01:46.265Z,4.45
2023-03-05T01:02:46.211Z,4.49
2023-03-05T01:03:46.208Z,4.49
2023-03-05T01:04:46.201Z,4.49
2023-03-05T01:05:46.198Z,4.44
2023-03-05T01:06:46.198Z,4.49
2023-03-05T01:07:46.178Z,4.48
2023-03-05T01:08:46.207Z,4.55
2023-03-05T01:09:46.156Z,4.42
2023-03-05T01:10:46.151Z,4.48
2023-03-05T01:11:46.142Z,4.45
2023-03-05T01:12:46.137Z,4.41
2023-03-05T01:13:46.128Z,4.37
2023-03-05T01:14:46.116Z,4.48
2023-03-05T01:15:46.146Z,4.40
2023-03-05T01:16:46.122Z,4.38
2023-03-05T01:17:46.097Z,4.40
2023-03-05T01:18:46.087Z,4.34
2023-03-05T01:19:46.083Z,4.38
2023-03-05T01:20:46.075Z,4.34
2023-03-05T01:21:46.068Z,4.37
2023-03-05T01:22:46.055Z,4.35
2023-03-05T01:23:46.054Z,4.41
2023-03-05T01:24:46.044Z,4.34
2023-03-05T01:25:46.388Z,4.37
2023-03-05T01:26:46.029Z,4.34
2023-03-05T01:27:46.024Z,4.37
2023-03-05T01:28:46.023Z,4.37
2023-03-05T01:29:46.009Z,4.40
2023-03-05T01:30:45.999Z,4.31
2023-03-05T01:31:46.066Z,4.30
2023-03-05T01:32:46.002Z,4.30
2023-03-05T01:33:45.984Z,4.26
2023-03-05T01:34:45.970Z,4.30
2023-03-05T01:35:46.019Z,4.32
2023-03-05T01:36:45.958Z,4.31
2023-03-05T01:37:45.951Z,4.28
2023-03-05T01:38:45.946Z,4.17
2023-03-05T01:39:45.950Z,4.24
2023-03-05T01:40:45.930Z,4.30
2023-03-05T01:41:45.924Z,4.30
2023-03-05T01:42:45.916Z,4.24
2023-03-05T01:43:45.915Z,4.31
2023-03-05T01:44:45.909Z,4.30
2023-03-05T01:45:45.926Z,4.31
2023-03-05T01:46:45.892Z,4.32
2023-03-05T01:47:45.890Z,4.31
2023-03-05T01:48:45.897Z,4.28
2023-03-05T01:49:45.872Z,4.26
2023-03-05T01:50:45.863Z,4.20
2023-03-05T01:51:45.864Z,4.28
2023-03-05T01:52:45.853Z,4.31
2023-03-05T01:53:45.844Z,4.32
2023-03-05T01:54:45.837Z,4.30
2023-03-05T01:55:45.832Z,4.30
2023-03-05T01:56:45.826Z,4.28
2023-03-05T01:57:45.821Z,4.32
2023-03-05T01:58:45.808Z,4.26
2023-03-05T01:59:45.804Z,4.30
2023-03-05T02:00:45.860Z,4.24
2023-03-05T02:01:45.789Z,4.32
2023-03-05T02:02:45.778Z,4.31
2023-03-05T02:03:45.823Z,4.26
2023-03-05T02:04:45.789Z,4.30
2023-03-05T02:05:45.767Z,4.37
2023-03-05T02:06:45.756Z,4.26
2023-03-05T02:07:45.747Z,4.31
2023-03-05T02:08:45.737Z,4.31
2023-03-05T02:09:45.842Z,4.31
2023-03-05T02:10:45.725Z,4.30
2023-03-05T02:11:45.722Z,4.28
2023-03-05T02:12:45.712Z,4.19
2023-03-05T02:13:45.709Z,4.22
2023-03-05T02:14:45.700Z,4.20
2023-03-05T02:15:45.697Z,4.19
2023-03-05T02:16:45.740Z,4.14
2023-03-05T02:17:45.685Z,4.22
2023-03-05T02:18:45.677Z,4.19
2023-03-05T02:19:45.670Z,4.22
2023-03-05T02:20:45.682Z,4.20
2023-03-05T02:21:45.657Z,4.20
2023-03-05T02:22:45.649Z,4.17
2023-03-05T02:23:45.642Z,4.20
2023-03-05T02:24:45.632Z,4.20
2023-03-05T02:25:45.633Z,4.14
2023-03-05T02:26:45.624Z,4.20
2023-03-05T02:27:45.621Z,4.20
2023-03-05T02:28:45.617Z,4.14
2023-03-05T02:29:45.606Z,4.19
2023-03-05T02:30:45.601Z,4.20
2023-03-05T02:31:45.629Z,4.22
2023-03-05T02:32:45.646Z,4.23
2023-03-05T02:33:45.576Z,4.20
2023-03-05T02:34:45.608Z,4.19
2023-03-05T02:35:45.655Z,4.22
2023-03-05T02:36:45.609Z,4.17
2023-03-05T02:37:45.599Z,4.22
2023-03-05T02:38:45.541Z,4.19
2023-03-05T02:39:45.605Z,4.17
2023-03-05T02:40:45.528Z,4.13
2023-03-05T02:41:45.524Z,4.17
2023-03-05T02:42:45.516Z,4.12
2023-03-05T02:43:45.507Z,4.13
2023-03-05T02:44:45.501Z,4.19
2023-03-05T02:45:45.579Z,4.10
2023-03-05T02:46:45.487Z,4.19
2023-03-05T02:47:45.495Z,4.20
2023-03-05T02:48:45.480Z,4.17
2023-03-05T02:49:45.474Z,4.19
2023-03-05T02:50:45.458Z,4.16
2023-03-05T02:51:45.456Z,4.16
2023-03-05T02:52:45.464Z,4.22
2023-03-05T02:53:45.443Z,4.16
2023-03-05T02:54:45.433Z,4.14
2023-03-05T02:55:45.430Z,4.19
2023-03-05T02:56:45.419Z,4.17
2023-03-05T02:57:45.416Z,4.19
2023-03-05T02:58:45.424Z,4.23
2023-03-05T02:59:45.405Z,4.20
2023-03-05T03:00:45.391Z,4.17
2023-03-05T03:01:45.386Z,4.17
2023-03-05T03:02:45.448Z,4.20
2023-03-05T03:03:45.374Z,4.14
2023-03-05T03:04:45.383Z,4.08
2023-03-05T03:05:45.359Z,4.12
2023-03-05T03:06:45.360Z,4.16
2023-03-05T03:07:45.348Z,4.17
2023-03-05T03:08:45.358Z,4.19
2023-03-05T03:09:45.335Z,4.12
2023-03-05T03:10:45.323Z,4.20
2023-03-05T03:11:45.320Z,4.20
2023-03-05T03:12:45.324Z,4.23
2023-03-05T03:13:45.319Z,4.19
2023-03-05T03:14:45.296Z,4.22
2023-03-05T03:15:45.294Z,4.26
2023-03-05T03:16:45.307Z,4.20
2023-03-05T03:17:45.285Z,4.20
2023-03-05T03:18:45.281Z,4.19
2023-03-05T03:19:45.268Z,4.26
2023-03-05T03:20:45.257Z,4.23
2023-03-05T03:21:45.259Z,4.34
2023-03-05T03:22:45.250Z,4.35
2023-03-05T03:23:45.252Z,4.24
2023-03-05T03:24:45.257Z,4.28
2023-03-05T03:25:45.233Z,4.22
2023-03-05T03:26:45.222Z,4.30
2023-03-05T03:27:45.223Z,4.30
2023-03-05T03:28:45.211Z,4.30
2023-03-05T03:29:45.204Z,4.32
2023-03-05T03:30:45.696Z,4.20
2023-03-05T03:31:45.191Z,4.26
2023-03-05T03:32:45.180Z,4.30
2023-03-05T03:33:45.188Z,4.30
2023-03-05T03:34:45.170Z,4.31
2023-03-05T03:35:45.185Z,4.26
2023-03-05T03:36:45.156Z,4.19
2023-03-05T03:37:45.150Z,4.31
2023-03-05T03:38:45.141Z,4.23
2023-03-05T03:39:45.137Z,4.24
2023-03-05T03:40:45.150Z,4.32
2023-03-05T03:41:45.122Z,4.19
2023-03-05T03:42:45.115Z,4.19
2023-03-05T03:43:45.111Z,4.19
2023-03-05T03:44:45.142Z,4.19
2023-03-05T03:45:45.102Z,4.17
2023-03-05T03:46:45.093Z,4.16
2023-03-05T03:47:45.084Z,4.20
2023-03-05T03:48:45.079Z,4.16
2023-03-05T03:49:45.072Z,4.19
2023-03-05T03:50:45.071Z,4.17
2023-03-05T03:51:45.061Z,4.17
2023-03-05T03:52:45.059Z,4.17
2023-03-05T03:53:45.044Z,4.16
2023-03-05T03:54:45.042Z,4.19
2023-03-05T03:55:45.033Z,4.22
2023-03-05T03:56:45.042Z,4.20
2023-03-05T03:57:45.020Z,4.17
2023-03-05T03:58:45.007Z,4.08
2023-03-05T03:59:45.037Z,4.13
2023-03-05T04:00:45.002Z,4.22
2023-03-05T04:01:44.993Z,4.22
2023-03-05T04:02:45.014Z,4.20
2023-03-05T04:03:44.979Z,4.22
2023-03-05T04:04:44.980Z,4.16
2023-03-05T04:05:44.966Z,4.17
2023-03-05T04:06:44.961Z,4.16
2023-03-05T04:07:44.972Z,4.20
2023-03-05T04:08:44.951Z,4.23
2023-03-05T04:09:44.952Z,4.22
2023-03-05T04:10:44.933Z,4.23
2023-03-05T04:11:44.921Z,4.24
2023-03-05T04:12:44.940Z,4.30
2023-03-05T04:13:44.915Z,4.19
2023-03-05T04:14:44.909Z,4.17
2023-03-05T04:15:44.929Z,4.16
2023-03-05T04:16:44.900Z,4.20
2023-03-05T04:17:44.888Z,4.17
2023-03-05T04:18:44.879Z,4.13
2023-03-05T04:19:44.879Z,4.05
2023-03-05T04:20:44.868Z,4.19
2023-03-05T04:21:44.857Z,4.17
2023-03-05T04:22:44.851Z,4.08
2023-03-05T04:23:44.844Z,4.19
2023-03-05T04:24:44.839Z,4.17
2023-03-05T04:25:44.831Z,4.20
2023-03-05T04:26:44.874Z,4.17
2023-03-05T04:27:44.814Z,4.12
2023-03-05T04:28:44.829Z,4.19
2023-03-05T04:29:44.821Z,4.20
2023-03-05T04:30:44.805Z,4.12
2023-03-05T04:31:45.086Z,4.20
2023-03-05T04:32:44.787Z,4.13
2023-03-05T04:33:44.788Z,4.13
2023-03-05T04:34:44.770Z,4.20
2023-03-05T04:35:44.810Z,4.06
2023-03-05T04:36:44.911Z,4.17
2023-03-05T04:37:44.744Z,4.17
2023-03-05T04:38:44.752Z,4.19
2023-03-05T04:39:44.750Z,4.16
2023-03-05T04:40:44.723Z,4.17
2023-03-05T04:41:44.917Z,4.17
2023-03-05T04:42:44.712Z,4.20
2023-03-05T04:43:44.710Z,4.19
2023-03-05T04:44:44.743Z,4.17
2023-03-05T04:45:44.688Z,4.20
2023-03-05T04:46:44.741Z,4.22
2023-03-05T04:47:44.677Z,4.19
2023-03-05T04:48:44.683Z,4.20
2023-03-05T04:49:44.663Z,4.22
2023-03-05T04:50:44.657Z,4.16
2023-03-05T04:51:44.648Z,4.16
2023-03-05T04:52:44.643Z,4.13
2023-03-05T04:53:44.632Z,4.13
2023-03-05T04:54:44.629Z,4.14
2023-03-05T04:55:44.638Z,4.10
2023-03-05T04:56:44.621Z,4.05
2023-03-05T04:57:44.609Z,4.06
2023-03-05T04:58:44.613Z,4.12
2023-03-05T04:59:44.596Z,4.14
2023-03-05T05:00:44.608Z,4.16
2023-03-05T05:01:44.608Z,4.12
2023-03-05T05:02:44.663Z,4.12
2023-03-05T05:03:44.581Z,4.16
2023-03-05T05:04:44.572Z,4.10
2023-03-05T05:05:44.564Z,4.13
2023-03-05T05:06:44.581Z,4.13
2023-03-05T05:07:44.551Z,4.16
2023-03-05T05:08:44.567Z,4.10
2023-03-05T05:09:44.528Z,4.16
2023-03-05T05:10:44.525Z,4.14
2023-03-05T05:11:44.526Z,4.17
2023-03-05T05:12:44.585Z,4.20
2023-03-05T05:13:44.521Z,4.08
2023-03-05T05:14:44.499Z,4.12
2023-03-05T05:15:44.510Z,4.19
2023-03-05T05:16:44.512Z,4.05
2023-03-05T05:17:44.494Z,4.16
2023-03-05T05:18:44.485Z,4.14
2023-03-05T05:19:44.464Z,4.16
2023-03-05T05:20:44.476Z,4.06
2023-03-05T05:21:44.470Z,4.14
2023-03-05T05:22:44.459Z,4.14
2023-03-05T05:23:44.439Z,4.10
2023-03-05T05:24:44.438Z,4.13
2023-03-05T05:25:44.421Z,4.19
2023-03-05T05:26:44.420Z,4.14
2023-03-05T05:28:36.837Z,4.19
2023-03-05T05:28:44.396Z,4.19
2023-03-05T05:29:44.403Z,4.24
2023-03-05T05:30:44.388Z,4.22
2023-03-05T05:31:44.481Z,4.31
2023-03-05T05:32:44.399Z,4.28
2023-03-05T05:33:44.376Z,4.23
2023-03-05T05:34:44.363Z,4.30
2023-03-05T05:35:44.397Z,4.31
2023-03-05T05:36:44.349Z,4.20
2023-03-05T05:37:44.355Z,4.23
2023-03-05T05:38:44.345Z,4.23
2023-03-05T05:39:44.345Z,4.28
2023-03-05T05:40:44.324Z,4.20
2023-03-05T05:41:44.319Z,4.28
2023-03-05T05:42:44.312Z,4.23
2023-03-05T05:43:44.307Z,4.31
2023-03-05T05:44:44.328Z,4.37
2023-03-05T05:45:44.349Z,4.32
2023-03-05T05:46:44.329Z,4.23
2023-03-05T05:47:44.281Z,4.26
2023-03-05T05:48:44.301Z,4.24
2023-03-05T05:49:44.312Z,4.32
2023-03-05T05:50:44.265Z,4.26
2023-03-05T05:51:44.257Z,4.37
2023-03-05T05:52:44.248Z,4.34
2023-03-05T05:53:44.253Z,4.26
2023-03-05T05:54:44.238Z,4.31
2023-03-05T05:55:44.233Z,4.38
2023-03-05T05:56:44.224Z,4.30
2023-03-05T05:57:44.224Z,4.26
2023-03-05T05:58:44.213Z,4.28
2023-03-05T05:59:44.207Z,4.26
2023-03-05T06:00:44.202Z,4.31
2023-03-05T06:01:44.225Z,4.22
2023-03-05T06:02:44.245Z,4.20
2023-03-05T06:03:44.211Z,4.19
2023-03-05T06:04:44.189Z,4.19
2023-03-05T06:05:44.171Z,4.19
2023-03-05T06:06:44.156Z,4.20
2023-03-05T06:07:44.166Z,4.24
2023-03-05T06:08:44.145Z,4.17
2023-03-05T06:09:44.141Z,4.28
2023-03-05T06:10:44.140Z,4.26
2023-03-05T06:11:44.140Z,4.24
2023-03-05T06:12:44.117Z,4.30
2023-03-05T06:13:44.126Z,4.28
2023-03-05T06:14:44.160Z,4.30
2023-03-05T06:15:44.099Z,4.26
2023-03-05T06:16:44.136Z,4.34
2023-03-05T06:17:44.098Z,4.24
2023-03-05T06:18:44.079Z,4.30
2023-03-05T06:19:44.081Z,4.28
2023-03-05T06:20:44.086Z,4.35
2023-03-05T06:21:44.080Z,4.24
2023-03-05T06:22:44.056Z,4.22
2023-03-05T06:23:44.047Z,4.26
2023-03-05T06:24:44.039Z,4.28
2023-03-05T06:25:44.034Z,4.23
2023-03-05T06:26:44.024Z,4.22
2023-03-05T06:27:44.027Z,4.22
2023-03-05T06:28:44.011Z,4.19
2023-03-05T06:29:44.008Z,4.23
2023-03-05T06:30:44.074Z,4.26
2023-03-05T06:31:43.995Z,4.31
2023-03-05T06:32:43.994Z,4.23
2023-03-05T06:33:43.984Z,4.34
2023-03-05T06:34:43.978Z,4.24
2023-03-05T06:35:43.997Z,4.31
2023-03-05T06:36:44.483Z,4.23
2023-03-05T06:37:43.957Z,4.34
2023-03-05T06:38:43.953Z,4.42
2023-03-05T06:39:43.948Z,4.31
2023-03-05T06:40:43.935Z,4.26
2023-03-05T06:41:43.929Z,4.40
2023-03-05T06:42:43.918Z,4.35
2023-03-05T06:43:43.924Z,4.35
2023-03-05T06:44:43.905Z,4.34
2023-03-05T06:45:44.008Z,4.34
2023-03-05T06:46:43.893Z,4.37
2023-03-05T06:47:43.893Z,4.37
2023-03-05T06:48:43.881Z,4.30
2023-03-05T06:49:43.878Z,4.23
2023-03-05T06:50:43.869Z,4.26
2023-03-05T06:51:43.865Z,4.26
2023-03-05T06:52:43.872Z,4.24
2023-03-05T06:53:43.872Z,4.31
2023-03-05T06:54:43.851Z,4.23
2023-03-05T06:55:43.836Z,4.26
2023-03-05T06:56:43.835Z,4.28
2023-03-05T06:57:43.839Z,4.24
2023-03-05T06:58:43.814Z,4.31
2023-03-05T06:59:43.810Z,4.32
2023-03-05T07:00:43.832Z,4.28
2023-03-05T07:01:43.811Z,4.30
2023-03-05T07:02:43.890Z,4.35
2023-03-05T07:03:43.786Z,4.32
2023-03-05T07:04:43.774Z,4.20
2023-03-05T07:05:43.775Z,4.40
2023-03-05T07:06:43.776Z,4.38
2023-03-05T07:07:43.762Z,4.40
2023-03-05T07:08:43.781Z,4.34
2023-03-05T07:09:43.745Z,4.34
2023-03-05T07:10:43.736Z,4.34
2023-03-05T07:11:43.734Z,4.38
2023-03-05T07:12:43.728Z,4.41
2023-03-05T07:13:43.718Z,4.30
2023-03-05T07:14:43.715Z,4.38
2023-03-05T07:15:43.788Z,4.32
2023-03-05T07:16:43.698Z,4.41
2023-03-05T07:17:43.695Z,4.38
2023-03-05T07:18:43.686Z,4.37
2023-03-05T07:19:43.679Z,4.41
2023-03-05T07:20:43.673Z,4.48
2023-03-05T07:21:43.665Z,4.49
2023-03-05T07:22:43.661Z,4.52
2023-03-05T07:23:43.653Z,4.55
2023-03-05T07:24:43.662Z,4.58
2023-03-05T07:25:43.641Z,4.55
2023-03-05T07:26:43.632Z,4.60
2023-03-05T07:27:43.625Z,4.56
2023-03-05T07:28:43.634Z,4.56
2023-03-05T07:29:43.616Z,4.62
2023-03-05T07:30:43.702Z,4.66
2023-03-05T07:31:43.604Z,4.58
2023-03-05T07:32:43.590Z,4.67
2023-03-05T07:33:43.599Z,4.68
2023-03-05T07:34:43.581Z,4.56
2023-03-05T07:35:43.624Z,4.58
2023-03-05T07:36:43.565Z,4.55
2023-03-05T07:37:43.572Z,4.55
2023-03-05T07:38:43.553Z,4.60
2023-03-05T07:39:45.683Z,4.60
2023-03-05T07:40:43.562Z,4.56
2023-03-05T07:41:43.538Z,4.52
2023-03-05T07:42:43.564Z,4.55
2023-03-05T07:43:43.524Z,4.58
2023-03-05T07:44:43.515Z,4.60
2023-03-05T07:45:43.511Z,4.58
2023-03-05T07:46:43.504Z,4.58
2023-03-05T07:47:43.496Z,4.56
2023-03-05T07:48:43.487Z,4.60
2023-03-05T07:49:43.485Z,4.56
2023-03-05T07:50:43.476Z,4.56
2023-03-05T07:51:43.472Z,4.58
2023-03-05T07:52:43.466Z,4.58
2023-03-05T07:53:43.457Z,4.56
2023-03-05T07:54:43.449Z,4.55
2023-03-05T07:55:43.458Z,4.59
2023-03-05T07:56:43.475Z,4.53
2023-03-05T07:57:43.431Z,4.56
2023-03-05T07:58:44.910Z,4.56
2023-03-05T07:59:43.415Z,4.56
2023-03-05T08:00:43.412Z,4.59
2023-03-05T08:01:43.412Z,4.56
2023-03-05T08:02:43.525Z,4.71
2023-03-05T08:03:43.473Z,4.70
2023-03-05T08:04:43.428Z,4.66
2023-03-05T08:05:43.389Z,4.66
2023-03-05T08:06:43.447Z,4.66
2023-03-05T08:07:43.373Z,4.71
2023-03-05T08:08:43.357Z,4.73
2023-03-05T08:09:43.377Z,4.71
2023-03-05T08:10:43.350Z,4.62
2023-03-05T08:11:43.351Z,4.67
2023-03-05T08:12:43.375Z,4.59
2023-03-05T08:13:43.332Z,4.62
2023-03-05T08:14:43.324Z,4.62
2023-03-05T08:15:43.428Z,4.67
2023-03-05T08:16:43.309Z,4.77
2023-03-05T08:17:43.303Z,4.67
2023-03-05T08:18:43.299Z,4.73
2023-03-05T08:19:43.300Z,4.68
2023-03-05T08:20:43.292Z,4.70
2023-03-05T08:21:43.296Z,4.66
2023-03-05T08:22:43.274Z,4.80
2023-03-05T08:23:43.265Z,4.82
2023-03-05T08:24:43.274Z,4.80
2023-03-05T08:25:43.251Z,4.70
2023-03-05T08:26:43.244Z,4.82
2023-03-05T08:27:43.237Z,4.78
2023-03-05T08:28:43.250Z,4.80
2023-03-05T08:29:43.223Z,4.87
2023-03-05T08:30:43.224Z,4.84
2023-03-05T08:31:43.267Z,4.84
2023-03-05T08:32:43.221Z,4.75
2023-03-05T08:33:43.203Z,4.80
2023-03-05T08:34:43.197Z,4.86
2023-03-05T08:35:43.261Z,4.89
2023-03-05T08:36:43.186Z,4.89
2023-03-05T08:37:43.170Z,4.87
2023-03-05T08:38:43.199Z,4.77
2023-03-05T08:39:43.158Z,4.90
2023-03-05T08:40:43.153Z,4.75
2023-03-05T08:41:43.145Z,4.86
2023-03-05T08:42:43.138Z,4.86
2023-03-05T08:43:43.134Z,4.80
2023-03-05T08:44:43.152Z,4.87
2023-03-05T08:45:43.119Z,4.80
2023-03-05T08:46:43.329Z,4.77
2023-03-05T08:47:43.110Z,4.80
2023-03-05T08:48:43.105Z,4.80
2023-03-05T08:49:43.107Z,4.87
2023-03-05T08:50:43.099Z,4.75
2023-03-05T08:51:43.083Z,4.75
2023-03-05T08:52:43.089Z,4.74
2023-03-05T08:53:43.068Z,4.90
2023-03-05T08:54:43.064Z,4.82
2023-03-05T08:55:44.219Z,4.82
2023-03-05T08:56:43.052Z,4.82
2023-03-05T08:57:43.041Z,4.82
2023-03-05T08:58:43.040Z,4.70
2023-03-05T08:59:43.031Z,4.84
2023-03-05T09:00:43.052Z,4.74
2023-03-05T09:01:43.102Z,4.68
2023-03-05T09:02:43.035Z,4.73
2023-03-05T09:03:43.013Z,4.74
2023-03-05T09:04:42.999Z,4.62
2023-03-05T09:05:42.993Z,4.71
2023-03-05T09:06:42.989Z,4.71
2023-03-05T09:07:42.982Z,4.68
2023-03-05T09:08:42.978Z,4.58
2023-03-05T09:09:42.971Z,4.59
2023-03-05T09:10:42.959Z,4.56
2023-03-05T09:11:42.952Z,4.55
2023-03-05T09:12:42.954Z,4.50
2023-03-05T09:13:42.940Z,4.49
2023-03-05T09:14:42.936Z,4.45
2023-03-05T09:15:42.927Z,4.52
2023-03-05T09:16:43.006Z,4.44
2023-03-05T09:17:42.913Z,4.42
2023-03-05T09:18:42.911Z,4.50
2023-03-05T09:19:42.909Z,4.48
2023-03-05T09:20:42.894Z,4.48
2023-03-05T09:21:42.919Z,4.45
2023-03-05T09:22:42.884Z,4.42
2023-03-05T09:23:42.880Z,4.52
2023-03-05T09:24:42.878Z,4.50
2023-03-05T09:25:42.859Z,4.52
2023-03-05T09:26:42.883Z,4.49
2023-03-05T09:27:42.849Z,4.59
2023-03-05T09:28:42.840Z,4.55
2023-03-05T09:29:43.327Z,4.58
2023-03-05T09:30:42.828Z,4.59
2023-03-05T09:31:42.892Z,4.60
2023-03-05T09:32:42.929Z,4.58
2023-03-05T09:33:42.807Z,4.66
2023-03-05T09:34:42.803Z,4.67
2023-03-05T09:35:42.817Z,4.60
2023-03-05T09:36:42.785Z,4.59
2023-03-05T09:37:42.779Z,4.71
2023-03-05T09:38:42.776Z,4.70
2023-03-05T09:39:42.775Z,4.73
2023-03-05T09:40:42.759Z,4.67
2023-03-05T09:41:43.005Z,4.66
2023-03-05T09:42:42.752Z,4.68
2023-03-05T09:43:42.742Z,4.67
2023-03-05T09:44:42.737Z,4.68
2023-03-05T09:45:42.772Z,4.74
2023-03-05T09:46:42.725Z,4.66
2023-03-05T09:47:42.716Z,4.68
2023-03-05T09:48:42.729Z,4.74
2023-03-05T09:49:42.701Z,4.70
2023-03-05T09:50:42.693Z,4.77
2023-03-05T09:51:42.686Z,4.78
2023-03-05T09:52:42.679Z,4.77
2023-03-05T09:53:42.675Z,4.82
2023-03-05T09:54:42.667Z,4.75
2023-03-05T09:55:42.659Z,4.70
2023-03-05T09:56:42.657Z,4.74
2023-03-05T09:57:42.647Z,4.71
2023-03-05T09:58:42.649Z,4.77
2023-03-05T09:59:42.637Z,4.75
2023-03-05T10:00:42.643Z,4.70
2023-03-05T10:01:42.628Z,4.82
2023-03-05T10:02:42.800Z,4.82
2023-03-05T10:03:42.651Z,4.84
2023-03-05T10:04:42.623Z,4.92
2023-03-05T10:05:42.593Z,5.02
2023-03-05T10:06:42.588Z,4.92
2023-03-05T10:07:42.583Z,5.00
2023-03-05T10:08:42.575Z,4.92
2023-03-05T10:09:42.572Z,4.96
2023-03-05T10:10:42.560Z,4.92
2023-03-05T10:11:42.564Z,4.84
2023-03-05T10:12:42.927Z,4.89
2023-03-05T10:13:42.547Z,4.84
2023-03-05T10:14:42.539Z,4.82
2023-03-05T10:15:42.529Z,4.84
2023-03-05T10:16:42.590Z,4.87
2023-03-05T10:17:42.514Z,4.78
2023-03-05T10:18:42.525Z,4.89
2023-03-05T10:19:42.510Z,4.86
2023-03-05T10:20:42.529Z,4.84
2023-03-05T10:21:42.491Z,4.87
2023-03-05T10:22:42.483Z,4.84
2023-03-05T10:23:42.479Z,4.80
2023-03-05T10:24:42.474Z,4.82
2023-03-05T10:25:42.469Z,5.00
2023-03-05T10:26:42.476Z,5.00
2023-03-05T10:27:42.453Z,4.94
2023-03-05T10:28:42.441Z,5.02
2023-03-05T10:29:42.435Z,4.94
2023-03-05T10:30:42.441Z,5.02
2023-03-05T10:31:42.493Z,4.99
2023-03-05T10:32:42.499Z,5.04
2023-03-05T10:33:42.410Z,4.99
2023-03-05T10:34:42.403Z,5.07
2023-03-05T10:35:42.426Z,5.00
2023-03-05T10:36:42.409Z,5.10
2023-03-05T10:37:42.382Z,5.07
2023-03-05T10:38:42.380Z,5.12
2023-03-05T10:39:42.369Z,5.18
2023-03-05T10:40:42.369Z,5.21
2023-03-05T10:41:42.707Z,5.15
2023-03-05T10:42:42.350Z,5.20
2023-03-05T10:43:42.351Z,5.17
2023-03-05T10:44:42.379Z,5.28
2023-03-05T10:45:42.408Z,5.23
2023-03-05T10:46:42.331Z,5.32
2023-03-05T10:47:42.318Z,5.35
2023-03-05T10:48:42.313Z,5.35
2023-03-05T10:49:42.307Z,5.46
2023-03-05T10:50:42.301Z,5.44
2023-03-05T10:51:42.291Z,5.43
2023-03-05T10:52:42.305Z,5.50
2023-03-05T10:53:42.292Z,5.51
2023-03-05T10:54:42.276Z,5.59
2023-03-05T10:55:42.270Z,5.62
2023-03-05T10:56:42.277Z,5.59
2023-03-05T10:57:42.253Z,5.56
2023-03-05T10:58:42.247Z,5.59
2023-03-05T10:59:42.247Z,5.59
2023-03-05T11:00:42.257Z,5.68
2023-03-05T11:01:42.256Z,5.65
2023-03-05T11:02:42.333Z,5.68
2023-03-05T11:03:42.213Z,5.69
2023-03-05T11:04:42.207Z,5.72
2023-03-05T11:05:42.201Z,5.73
2023-03-05T11:06:42.204Z,5.66
2023-03-05T11:07:42.186Z,5.65
2023-03-05T11:08:42.200Z,5.53
2023-03-05T11:09:42.169Z,5.61
2023-03-05T11:10:42.163Z,5.62
2023-03-05T11:11:42.156Z,5.57
2023-03-05T11:12:42.149Z,5.56
2023-03-05T11:13:42.150Z,5.53
2023-03-05T11:14:42.161Z,5.59
2023-03-05T11:15:42.165Z,5.56
2023-03-05T11:16:42.127Z,5.72
2023-03-05T11:17:42.118Z,5.48
2023-03-05T11:18:42.112Z,5.57
2023-03-05T11:19:42.103Z,5.54
2023-03-05T11:20:42.106Z,5.65
2023-03-05T11:21:42.100Z,5.68
2023-03-05T11:22:42.092Z,5.72
2023-03-05T11:23:42.076Z,5.68
2023-03-05T11:24:42.117Z,5.84
2023-03-05T11:25:42.067Z,5.93
2023-03-05T11:26:42.062Z,5.94
2023-03-05T11:27:42.052Z,5.87
2023-03-05T11:28:42.046Z,5.93
2023-03-05T11:29:42.051Z,5.98
2023-03-05T11:30:42.131Z,6.02
2023-03-05T11:31:42.034Z,5.97
2023-03-05T11:32:42.023Z,5.94
2023-03-05T11:33:42.016Z,5.94
2023-03-05T11:34:42.011Z,6.05
2023-03-05T11:35:42.169Z,6.04
2023-03-05T11:36:41.991Z,6.01
2023-03-05T11:37:41.991Z,6.20
2023-03-05T11:38:41.981Z,6.11
2023-03-05T11:39:41.983Z,6.17
2023-03-05T11:40:41.992Z,6.26
2023-03-05T11:41:41.971Z,6.20
2023-03-05T11:42:41.960Z,6.31
2023-03-05T11:43:41.960Z,6.30
2023-03-05T11:44:41.943Z,6.27
2023-03-05T11:45:41.942Z,6.20
2023-03-05T11:46:42.084Z,6.27
2023-03-05T11:47:41.927Z,6.19
2023-03-05T11:48:41.926Z,6.12
2023-03-05T11:49:41.922Z,6.24
2023-03-05T11:50:41.934Z,6.16
2023-03-05T11:51:41.907Z,6.14
2023-03-05T11:52:41.897Z,6.14
2023-03-05T11:53:41.889Z,6.17
2023-03-05T11:54:41.884Z,6.16
2023-03-05T11:55:41.889Z,6.05
2023-03-05T11:56:41.899Z,6.01
2023-03-05T11:57:41.903Z,6.02
2023-03-05T11:58:41.861Z,5.91
2023-03-05T11:59:41.862Z,5.99
2023-03-05T12:00:41.857Z,5.97
2023-03-05T12:01:41.846Z,6.02
2023-03-05T12:02:41.967Z,5.94
2023-03-05T12:03:41.916Z,5.99
2023-03-05T12:04:41.832Z,5.94
2023-03-05T12:05:41.816Z,5.97
2023-03-05T12:06:42.563Z,5.98
2023-03-05T12:07:41.814Z,6.02
2023-03-05T12:08:41.800Z,6.01
2023-03-05T12:09:42.348Z,6.07
2023-03-05T12:10:41.990Z,6.08
2023-03-05T12:11:42.222Z,6.09
2023-03-05T12:12:42.138Z,6.09
2023-03-05T12:13:43.182Z,6.05
2023-03-05T12:14:41.768Z,6.09
2023-03-05T12:15:42.033Z,6.07
2023-03-05T12:16:41.759Z,6.16
2023-03-05T12:17:42.232Z,6.14
2023-03-05T12:18:41.741Z,6.14
2023-03-05T12:19:41.732Z,6.14
2023-03-05T12:20:41.969Z,6.01
2023-03-05T12:21:41.728Z,5.98
2023-03-05T12:22:42.024Z,5.97
2023-03-05T12:23:42.071Z,5.97
2023-03-05T12:24:41.706Z,5.94
2023-03-05T12:25:41.736Z,5.93
2023-03-05T12:26:41.912Z,5.86
2023-03-05T12:27:41.687Z,5.97
2023-03-05T12:28:41.850Z,6.01
2023-03-05T12:29:41.687Z,5.99
2023-03-05T12:30:42.277Z,6.07
2023-03-05T12:31:41.757Z,6.05
2023-03-05T12:32:41.898Z,6.07
2023-03-05T12:33:41.663Z,6.14
2023-03-05T12:34:41.866Z,6.11
2023-03-05T12:35:41.682Z,6.07
2023-03-05T12:36:41.687Z,6.05
2023-03-05T12:37:41.620Z,6.05
2023-03-05T12:38:41.620Z,6.09
2023-03-05T12:39:41.780Z,6.11
2023-03-05T12:40:41.635Z,6.14
2023-03-05T12:41:41.843Z,6.08
2023-03-05T12:42:41.601Z,6.11
2023-03-05T12:43:41.661Z,6.09
2023-03-05T12:44:41.602Z,6.02
2023-03-05T12:45:41.621Z,6.01
2023-03-05T12:46:41.608Z,5.94
2023-03-05T12:47:41.571Z,5.97
2023-03-05T12:48:41.625Z,6.01
2023-03-05T12:49:41.573Z,5.99
2023-03-05T12:50:41.542Z,5.94
2023-03-05T12:51:41.770Z,5.98
2023-03-05T12:52:41.529Z,5.99
2023-03-05T12:53:41.530Z,5.89
2023-03-05T12:54:41.534Z,5.93
2023-03-05T12:55:41.531Z,5.91
2023-03-05T12:56:41.541Z,5.99
2023-03-05T12:57:41.524Z,5.90
2023-03-05T12:58:41.492Z,6.01
2023-03-05T12:59:41.491Z,5.90
2023-03-05T13:00:41.515Z,5.94
2023-03-05T13:01:41.483Z,5.87
2023-03-05T13:02:41.477Z,5.90
2023-03-05T13:03:41.526Z,5.83
2023-03-05T13:04:41.456Z,5.86
2023-03-05T13:05:41.448Z,5.98
2023-03-05T13:06:41.473Z,5.87
2023-03-05T13:07:41.433Z,5.90
2023-03-05T13:08:41.427Z,5.89
2023-03-05T13:09:41.419Z,5.99
2023-03-05T13:10:41.410Z,5.84
2023-03-05T13:11:41.471Z,5.90
2023-03-05T13:12:41.407Z,5.83
2023-03-05T13:13:41.395Z,5.94
2023-03-05T13:14:41.400Z,5.94
2023-03-05T13:15:41.381Z,5.84
2023-03-05T13:16:41.556Z,5.83
2023-03-05T13:17:41.387Z,5.91
2023-03-05T13:18:41.366Z,5.93
2023-03-05T13:19:41.356Z,5.86